Time;durP1;ratioP1;P1;durP2;ratioP2;P2;SDS_P1;SDS_P2;PMS_P1;PMS_P2;Temp;Humidity;BMP_temperature;BMP_pressure;BME280_temperature;BME280_humidity;BME280_pressure;Samples;Min_cycle;Max_cycle;Signal;HPM_P1;HPM_P2
2022/08/26 00:04:38;;;;;;;4.60;3.80;;;;;;;;;;10085564;29;20514;-90
2022/08/26 00:09:40;;;;;;;3.97;3.40;;;;;;;;;;10082080;29;20484;-90
2022/08/26 00:14:42;;;;;;;4.30;3.50;;;;;;;;;;10093245;29;20456;-90
2022/08/26 00:19:47;;;;;;;4.00;3.60;;;;;;;;;;10081633;29;20537;-90
2022/08/26 00:24:49;;;;;;;3.70;3.40;;;;;;;;;;10079929;29;20428;-90
2022/08/26 00:29:51;;;;;;;4.00;3.28;;;;;;;;;;10083381;29;20467;-90
2022/08/26 00:34:54;;;;;;;4.47;3.40;;;;;;;;;;10077095;29;20456;-90
2022/08/26 00:40:02;;;;;;;4.30;3.35;;;;;;;;;;10085849;29;20858;-90
2022/08/26 00:45:05;;;;;;;4.45;3.60;;;;;;;;;;10089875;29;20435;-90
2022/08/26 00:50:12;;;;;;;5.27;3.50;;;;;;;;;;10080562;29;20407;-90
2022/08/26 00:55:17;;;;;;;3.90;3.50;;;;;;;;;;10081702;29;20469;-90
2022/08/26 01:00:26;;;;;;;4.50;3.70;;;;;;;;;;10089305;29;20437;-90
2022/08/26 01:05:33;;;;;;;4.77;4.27;;;;;;;;;;10076965;29;20549;-90
2022/08/26 01:10:35;;;;;;;5.97;4.73;;;;;;;;;;10078411;29;20941;-90
2022/08/26 01:15:42;;;;;;;6.47;4.38;;;;;;;;;;10082745;29;20431;-90
2022/08/26 01:20:55;;;;;;;7.13;4.40;;;;;;;;;;10077470;29;20435;-90
2022/08/26 01:26:02;;;;;;;5.10;4.32;;;;;;;;;;10079738;29;20826;-90
2022/08/26 01:31:07;;;;;;;5.68;4.10;;;;;;;;;;10085432;29;20847;-91
2022/08/26 01:36:11;;;;;;;7.47;4.63;;;;;;;;;;10076950;29;20454;-90
2022/08/26 01:41:15;;;;;;;4.90;4.30;;;;;;;;;;10076408;29;20438;-90
2022/08/26 01:46:18;;;;;;;5.07;4.40;;;;;;;;;;10092495;29;20456;-91
2022/08/26 01:51:21;;;;;;;5.80;4.53;;;;;;;;;;10081607;29;20445;-91
2022/08/26 01:56:25;;;;;;;5.57;4.50;;;;;;;;;;10078775;29;20456;-90
2022/08/26 02:01:27;;;;;;;6.87;5.30;;;;;;;;;;10079187;29;20526;-90
2022/08/26 02:06:33;;;;;;;5.83;5.20;;;;;;;;;;10077650;29;20886;-90
2022/08/26 02:11:37;;;;;;;7.63;4.88;;;;;;;;;;10082135;29;20432;-90
2022/08/26 02:16:41;;;;;;;5.22;4.32;;;;;;;;;;10080764;29;20437;-90
2022/08/26 02:21:44;;;;;;;5.93;4.70;;;;;;;;;;10074828;29;20470;-90
2022/08/26 02:26:48;;;;;;;5.68;4.40;;;;;;;;;;10078486;29;20507;-90
2022/08/26 02:31:50;;;;;;;6.03;4.20;;;;;;;;;;10075347;29;20515;-90
2022/08/26 02:36:52;;;;;;;4.78;3.80;;;;;;;;;;10078976;29;20451;-90
2022/08/26 02:41:56;;;;;;;5.03;4.10;;;;;;;;;;10117418;29;20426;-89
2022/08/26 02:46:58;;;;;;;5.15;4.30;;;;;;;;;;10092572;29;20431;-90
2022/08/26 02:52:00;;;;;;;5.65;4.45;;;;;;;;;;10076328;29;20453;-90
2022/08/26 02:57:04;;;;;;;5.40;4.90;;;;;;;;;;10078486;29;20829;-90
2022/08/26 03:02:09;;;;;;;4.95;4.38;;;;;;;;;;10073322;29;20982;-90
2022/08/26 03:07:11;;;;;;;6.40;4.30;;;;;;;;;;10074030;29;20450;-90
2022/08/26 03:12:14;;;;;;;5.40;4.70;;;;;;;;;;10083568;29;20518;-90
2022/08/26 03:17:16;;;;;;;5.45;4.45;;;;;;;;;;10074748;29;20444;-90
2022/08/26 03:22:18;;;;;;;6.30;4.43;;;;;;;;;;10074309;29;20436;-90
2022/08/26 03:27:33;;;;;;;6.25;4.47;;;;;;;;;;10072020;29;21856;-90
2022/08/26 03:32:35;;;;;;;7.88;5.45;;;;;;;;;;10077845;29;20442;-90
2022/08/26 03:37:37;;;;;;;7.10;4.95;;;;;;;;;;10078852;29;20438;-90
2022/08/26 03:42:41;;;;;;;6.18;5.35;;;;;;;;;;10078922;29;20539;-90
2022/08/26 03:47:43;;;;;;;5.63;5.03;;;;;;;;;;10098290;29;20427;-90
2022/08/26 03:52:46;;;;;;;7.70;5.97;;;;;;;;;;10073627;29;20426;-90
2022/08/26 03:57:54;;;;;;;4.72;4.30;;;;;;;;;;10082648;29;20425;-90
2022/08/26 04:02:56;;;;;;;7.27;5.33;;;;;;;;;;10080440;29;20460;-90
2022/08/26 04:08:00;;;;;;;5.80;4.93;;;;;;;;;;10080505;29;20452;-91
2022/08/26 04:13:07;;;;;;;5.40;4.40;;;;;;;;;;10083092;29;20454;-90
2022/08/26 04:18:09;;;;;;;5.72;4.47;;;;;;;;;;10080291;29;20480;-90
2022/08/26 04:23:11;;;;;;;5.20;4.68;;;;;;;;;;10085365;29;20442;-90
2022/08/26 04:28:14;;;;;;;6.88;5.28;;;;;;;;;;10091338;29;20427;-90
2022/08/26 04:33:16;;;;;;;6.10;5.10;;;;;;;;;;10080407;29;20517;-90
2022/08/26 04:38:19;;;;;;;5.90;5.10;;;;;;;;;;10079131;29;20462;-90
2022/08/26 04:43:29;;;;;;;6.88;5.43;;;;;;;;;;10086764;29;20910;-90
2022/08/26 04:48:32;;;;;;;5.77;5.10;;;;;;;;;;10080709;29;20831;-90
2022/08/26 04:53:35;;;;;;;6.17;4.83;;;;;;;;;;10082938;29;20408;-90
2022/08/26 04:58:38;;;;;;;8.20;5.27;;;;;;;;;;10081953;29;20462;-91
2022/08/26 05:03:40;;;;;;;7.68;5.45;;;;;;;;;;10077860;29;20506;-90
2022/08/26 05:08:43;;;;;;;7.63;4.93;;;;;;;;;;10081816;29;20450;-90
2022/08/26 05:13:49;;;;;;;5.75;5.00;;;;;;;;;;10083933;29;20456;-91
2022/08/26 05:18:53;;;;;;;5.90;5.20;;;;;;;;;;10074205;29;20779;-90
2022/08/26 05:23:56;;;;;;;6.82;5.35;;;;;;;;;;10077595;29;20432;-90
2022/08/26 05:29:02;;;;;;;7.18;4.97;;;;;;;;;;10078696;29;20502;-90
2022/08/26 05:34:04;;;;;;;6.40;4.68;;;;;;;;;;10077171;29;20418;-90
2022/08/26 05:39:07;;;;;;;5.57;4.80;;;;;;;;;;10079225;29;20518;-90
2022/08/26 05:44:19;;;;;;;6.87;5.07;;;;;;;;;;10077259;29;20427;-90
2022/08/26 05:49:21;;;;;;;6.00;4.80;;;;;;;;;;10076809;29;20423;-90
2022/08/26 05:54:23;;;;;;;5.53;4.90;;;;;;;;;;10080391;29;20446;-90
2022/08/26 05:59:37;;;;;;;;;;;;;;;;;;;;;
2022/08/26 06:04:39;;;;;;;6.80;4.78;;;;;;;;;;10074146;29;20400;-90
2022/08/26 06:09:41;;;;;;;5.60;4.10;;;;;;;;;;10101382;29;20440;-90
2022/08/26 06:14:44;;;;;;;4.90;4.10;;;;;;;;;;10099331;29;20514;-90
2022/08/26 06:19:46;;;;;;;6.93;4.68;;;;;;;;;;10075114;29;20870;-90
2022/08/26 06:30:12;;;;;;;4.72;3.75;;;;;;;;;;10083783;29;20427;-89
2022/08/26 06:35:15;;;;;;;6.78;3.65;;;;;;;;;;10073543;29;20911;-90
2022/08/26 06:40:17;;;;;;;5.23;3.47;;;;;;;;;;10071861;29;21034;-90
2022/08/26 06:45:21;;;;;;;4.27;3.80;;;;;;;;;;10078576;29;20908;-90
2022/08/26 06:50:23;;;;;;;5.30;3.50;;;;;;;;;;10065330;29;20434;-90
2022/08/26 06:55:25;;;;;;;4.22;3.20;;;;;;;;;;10070737;29;20425;-91
2022/08/26 07:00:30;;;;;;;4.40;3.60;;;;;;;;;;10080393;29;20796;-91
2022/08/26 07:05:33;;;;;;;6.72;3.70;;;;;;;;;;10067948;29;20424;-91
2022/08/26 07:10:36;;;;;;;7.90;5.00;;;;;;;;;;10073360;29;20917;-91
2022/08/26 07:15:41;;;;;;;6.20;4.68;;;;;;;;;;10083361;29;20521;-90
2022/08/26 07:20:43;;;;;;;6.43;4.32;;;;;;;;;;10072734;29;20438;-91
2022/08/26 07:25:45;;;;;;;7.28;4.03;;;;;;;;;;10079602;29;20421;-90
2022/08/26 07:30:49;;;;;;;6.88;5.00;;;;;;;;;;10071496;29;20421;-90
2022/08/26 07:35:51;;;;;;;7.80;5.05;;;;;;;;;;10076216;29;20427;-90
2022/08/26 07:40:53;;;;;;;7.50;4.80;;;;;;;;;;10082569;29;20430;-90
2022/08/26 07:45:56;;;;;;;6.78;4.63;;;;;;;;;;10084746;29;20465;-91
2022/08/26 07:50:59;;;;;;;6.47;4.57;;;;;;;;;;10080808;29;20947;-91
2022/08/26 07:56:01;;;;;;;5.77;4.40;;;;;;;;;;10084946;29;20458;-90
2022/08/26 08:01:05;;;;;;;6.00;4.43;;;;;;;;;;10092427;29;20499;-91
2022/08/26 08:06:08;;;;;;;4.25;3.85;;;;;;;;;;10095110;29;20480;-90
2022/08/26 08:11:11;;;;;;;7.13;4.43;;;;;;;;;;10085175;29;20421;-90
2022/08/26 08:16:14;;;;;;;8.67;4.57;;;;;;;;;;10086043;29;20425;-90
2022/08/26 08:21:19;;;;;;;8.52;4.40;;;;;;;;;;10078961;29;20467;-90
2022/08/26 08:26:22;;;;;;;7.60;4.73;;;;;;;;;;10085053;29;20509;-90
2022/08/26 08:31:28;;;;;;;7.13;4.90;;;;;;;;;;10083847;29;20451;-90
2022/08/26 08:36:34;;;;;;;8.10;4.72;;;;;;;;;;10110359;29;20403;-91
2022/08/26 08:41:52;;;;;;;7.27;4.80;;;;;;;;;;10118143;29;21024;-91
2022/08/26 08:46:59;;;;;;;6.32;4.70;;;;;;;;;;10080597;29;20419;-91
2022/08/26 08:52:08;;;;;;;8.60;5.30;;;;;;;;;;10077620;29;20442;-90
2022/08/26 08:57:19;;;;;;;6.40;4.55;;;;;;;;;;10088123;29;20549;-91
2022/08/26 09:02:42;;;;;;;12.90;6.10;;;;;;;;;;10073391;29;20527;-90
2022/08/26 09:07:48;;;;;;;11.93;5.00;;;;;;;;;;10077378;29;20477;-91
2022/08/26 09:12:51;;;;;;;9.25;4.60;;;;;;;;;;10078775;29;20799;-90
2022/08/26 09:18:01;;;;;;;7.32;4.80;;;;;;;;;;10076863;29;20431;-90
2022/08/26 09:23:08;;;;;;;7.22;4.78;;;;;;;;;;10077470;29;20916;-90
2022/08/26 09:28:16;;;;;;;6.78;4.88;;;;;;;;;;10084478;29;20804;-90
2022/08/26 09:33:28;;;;;;;5.70;4.87;;;;;;;;;;10072869;29;20440;-90
2022/08/26 09:38:34;;;;;;;7.13;4.63;;;;;;;;;;10100915;29;20408;-90
2022/08/26 09:43:41;;;;;;;6.47;4.53;;;;;;;;;;10101364;29;20430;-90
2022/08/26 09:54:04;;;;;;;6.45;4.72;;;;;;;;;;10071913;29;20499;-90
2022/08/26 09:59:09;;;;;;;7.38;4.85;;;;;;;;;;10085548;29;20480;-90
2022/08/26 10:04:14;;;;;;;8.07;4.60;;;;;;;;;;10074333;29;20419;-89
2022/08/26 10:09:18;;;;;;;6.72;4.70;;;;;;;;;;10074210;29;20510;-89
2022/08/26 10:14:27;;;;;;;6.43;4.82;;;;;;;;;;10076119;29;20420;-89
2022/08/26 10:19:38;;;;;;;8.13;4.90;;;;;;;;;;10072390;29;20574;-89
2022/08/26 10:24:45;;;;;;;6.68;4.57;;;;;;;;;;10079676;29;21082;-89
2022/08/26 10:29:55;;;;;;;6.85;4.50;;;;;;;;;;10078636;29;20953;-91
2022/08/26 10:34:58;;;;;;;5.90;4.35;;;;;;;;;;10073783;29;20422;-90
2022/08/26 10:40:07;;;;;;;6.82;4.70;;;;;;;;;;10074668;29;20937;-89
2022/08/26 10:45:16;;;;;;;6.65;4.55;;;;;;;;;;10078642;29;20421;-90
2022/08/26 10:50:22;;;;;;;8.27;4.40;;;;;;;;;;10073449;29;20545;-90
2022/08/26 10:55:32;;;;;;;7.03;4.30;;;;;;;;;;10072272;29;20430;-90
2022/08/26 11:06:23;;;;;;;7.07;4.07;;;;;;;;;;10066142;29;20894;-92
2022/08/26 11:11:47;;;;;;;7.63;4.30;;;;;;;;;;10075534;29;20507;-90
2022/08/26 11:16:51;;;;;;;6.47;4.10;;;;;;;;;;10073300;29;20426;-89
2022/08/26 11:22:09;;;;;;;6.07;4.27;;;;;;;;;;10078474;29;20435;-89
2022/08/26 11:27:53;;;;;;;6.33;4.20;;;;;;;;;;10077918;29;20655;-90
2022/08/26 11:32:57;;;;;;;7.87;4.20;;;;;;;;;;10076957;29;20502;-91
2022/08/26 11:38:12;;;;;;;6.90;4.35;;;;;;;;;;10070470;29;20479;-90
2022/08/26 11:43:21;;;;;;;9.48;4.45;;;;;;;;;;10073033;29;20440;-90
2022/08/26 11:48:31;;;;;;;6.00;3.90;;;;;;;;;;10069759;29;20445;-90
2022/08/26 11:53:39;;;;;;;5.75;4.07;;;;;;;;;;10082069;29;20896;-89
2022/08/26 11:58:43;;;;;;;8.20;4.43;;;;;;;;;;10076297;29;20839;-90
2022/08/26 12:03:48;;;;;;;5.97;4.53;;;;;;;;;;10071045;29;20857;-89
2022/08/26 12:08:53;;;;;;;7.40;4.43;;;;;;;;;;10072377;29;20444;-89
2022/08/26 12:13:59;;;;;;;7.32;4.50;;;;;;;;;;10078579;29;20501;-89
2022/08/26 12:19:01;;;;;;;7.18;4.40;;;;;;;;;;10074803;29;20918;-90
2022/08/26 12:24:06;;;;;;;6.45;4.78;;;;;;;;;;10079090;29;20542;-89
2022/08/26 12:29:13;;;;;;;8.15;4.13;;;;;;;;;;10087479;29;20530;-90
2022/08/26 12:34:19;;;;;;;6.78;4.20;;;;;;;;;;10077512;29;20450;-91
2022/08/26 12:39:31;;;;;;;6.85;4.25;;;;;;;;;;10074366;29;20462;-92
2022/08/26 12:44:36;;;;;;;5.38;3.90;;;;;;;;;;10082901;29;20624;-92
2022/08/26 12:49:39;;;;;;;8.10;4.10;;;;;;;;;;10078410;29;20435;-92
2022/08/26 12:55:01;;;;;;;5.97;3.95;;;;;;;;;;10082238;29;20428;-91
2022/08/26 13:00:32;;;;;;;7.38;4.05;;;;;;;;;;10112536;29;20394;-91
2022/08/26 13:05:36;;;;;;;6.70;4.23;;;;;;;;;;10090280;29;20427;-91
2022/08/26 13:10:42;;;;;;;7.95;4.43;;;;;;;;;;10083890;29;20455;-89
2022/08/26 13:15:44;;;;;;;7.07;4.32;;;;;;;;;;10080501;29;20456;-91
2022/08/26 13:20:46;;;;;;;8.80;4.20;;;;;;;;;;10076226;29;20443;-91
2022/08/26 13:25:49;;;;;;;6.47;4.30;;;;;;;;;;10077556;29;20525;-91
2022/08/26 13:30:54;;;;;;;6.40;4.47;;;;;;;;;;10086557;29;20461;-91
2022/08/26 13:35:58;;;;;;;6.80;4.00;;;;;;;;;;10075401;29;20509;-91
2022/08/26 13:41:02;;;;;;;5.27;4.10;;;;;;;;;;10073669;29;20524;-91
2022/08/26 13:46:04;;;;;;;6.50;4.40;;;;;;;;;;10080172;29;20508;-91
2022/08/26 13:51:07;;;;;;;7.90;4.10;;;;;;;;;;10080857;29;20464;-91
2022/08/26 13:56:10;;;;;;;7.37;4.13;;;;;;;;;;10074504;29;20410;-90
2022/08/26 14:01:12;;;;;;;6.73;4.40;;;;;;;;;;10080976;29;20438;-89
2022/08/26 14:06:16;;;;;;;5.93;3.72;;;;;;;;;;10074196;29;20430;-89
2022/08/26 14:11:20;;;;;;;6.20;4.03;;;;;;;;;;10074969;29;20420;-91
2022/08/26 14:16:26;;;;;;;7.97;4.35;;;;;;;;;;10083265;29;20948;-91
2022/08/26 14:21:33;;;;;;;6.65;4.20;;;;;;;;;;10073460;29;20429;-91
2022/08/26 14:26:37;;;;;;;6.83;4.23;;;;;;;;;;10077847;29;20522;-91
2022/08/26 14:31:39;;;;;;;5.72;4.30;;;;;;;;;;10082213;29;20461;-91
2022/08/26 14:36:42;;;;;;;6.65;4.20;;;;;;;;;;10074082;29;20511;-91
2022/08/26 14:41:47;;;;;;;7.25;4.70;;;;;;;;;;10076990;29;20429;-90
2022/08/26 14:46:51;;;;;;;5.88;4.60;;;;;;;;;;10068677;29;20895;-90
2022/08/26 14:51:53;;;;;;;6.88;4.50;;;;;;;;;;10073960;29;20473;-90
2022/08/26 14:56:59;;;;;;;6.97;4.37;;;;;;;;;;10074668;29;20609;-91
2022/08/26 15:02:01;;;;;;;7.32;4.40;;;;;;;;;;10076363;29;20502;-91
2022/08/26 15:07:10;;;;;;;7.43;4.57;;;;;;;;;;10074428;29;20421;-91
2022/08/26 15:12:13;;;;;;;7.13;4.50;;;;;;;;;;10080548;29;20448;-91
2022/08/26 15:17:15;;;;;;;7.47;4.32;;;;;;;;;;10073138;29;20421;-91
2022/08/26 15:22:17;;;;;;;6.45;4.50;;;;;;;;;;10068857;29;20845;-90
2022/08/26 15:27:20;;;;;;;6.20;4.53;;;;;;;;;;10074243;29;20505;-90
2022/08/26 15:32:23;;;;;;;6.20;4.22;;;;;;;;;;10114198;29;20435;-90
2022/08/26 15:37:24;;;;;;;5.57;4.15;;;;;;;;;;10095964;29;20411;-90
2022/08/26 15:42:28;;;;;;;6.07;4.47;;;;;;;;;;10079126;29;20470;-91
2022/08/26 15:47:30;;;;;;;7.22;3.95;;;;;;;;;;10068277;29;20511;-91
2022/08/26 15:52:32;;;;;;;7.35;4.10;;;;;;;;;;10071222;29;20450;-91
2022/08/26 15:57:35;;;;;;;6.15;4.28;;;;;;;;;;10083132;29;20724;-92
2022/08/26 16:02:37;;;;;;;5.17;3.70;;;;;;;;;;10080207;29;20996;-91
2022/08/26 16:07:39;;;;;;;10.38;5.10;;;;;;;;;;10079763;29;20455;-91
2022/08/26 16:12:42;;;;;;;7.45;5.18;;;;;;;;;;10094114;29;20454;-90
2022/08/26 16:17:44;;;;;;;8.13;5.77;;;;;;;;;;10104863;29;20401;-89
2022/08/26 16:22:46;;;;;;;7.97;5.97;;;;;;;;;;10099751;29;20500;-91
2022/08/26 16:27:50;;;;;;;8.65;6.10;;;;;;;;;;10092006;29;20456;-90
2022/08/26 16:32:54;;;;;;;9.88;6.07;;;;;;;;;;10092767;29;20426;-91
2022/08/26 16:37:57;;;;;;;8.82;6.22;;;;;;;;;;10087717;29;20418;-90
2022/08/26 16:43:01;;;;;;;9.80;6.00;;;;;;;;;;10090738;29;20467;-90
2022/08/26 16:48:03;;;;;;;10.43;6.68;;;;;;;;;;10075746;29;20500;-90
2022/08/26 16:53:05;;;;;;;9.47;6.33;;;;;;;;;;10077214;29;20416;-90
2022/08/26 16:58:09;;;;;;;9.75;6.28;;;;;;;;;;10078459;29;20523;-90
2022/08/26 17:03:11;;;;;;;9.88;6.10;;;;;;;;;;10078579;29;20464;-89
2022/08/26 17:08:12;;;;;;;9.27;6.88;;;;;;;;;;10078494;29;20494;-89
2022/08/26 17:13:16;;;;;;;8.93;6.90;;;;;;;;;;10092590;29;20458;-89
2022/08/26 17:18:18;;;;;;;9.45;6.40;;;;;;;;;;10075255;29;20904;-89
2022/08/26 17:23:20;;;;;;;12.98;6.88;;;;;;;;;;10077314;29;20435;-89
2022/08/26 17:28:24;;;;;;;8.63;6.57;;;;;;;;;;10083304;29;20936;-89
2022/08/26 17:33:26;;;;;;;9.90;6.60;;;;;;;;;;10080978;29;20523;-89
2022/08/26 17:38:28;;;;;;;9.37;6.53;;;;;;;;;;10073993;29;20416;-90
2022/08/26 17:43:32;;;;;;;11.30;6.20;;;;;;;;;;10080311;29;20427;-89
2022/08/26 17:48:34;;;;;;;10.48;6.20;;;;;;;;;;10077456;29;20986;-90
2022/08/26 17:53:41;;;;;;;11.97;6.70;;;;;;;;;;10075925;29;20475;-89
2022/08/26 17:58:49;;;;;;;9.95;6.85;;;;;;;;;;10086747;29;20528;-89
2022/08/26 18:03:51;;;;;;;10.77;6.78;;;;;;;;;;10075367;29;20848;-89
2022/08/26 18:08:53;;;;;;;10.90;7.07;;;;;;;;;;10079112;29;20460;-89
2022/08/26 18:13:57;;;;;;;10.53;7.40;;;;;;;;;;10083173;29;20964;-89
2022/08/26 18:19:00;;;;;;;9.38;7.07;;;;;;;;;;10075317;29;20881;-89
2022/08/26 18:24:02;;;;;;;7.95;6.60;;;;;;;;;;10077276;29;20514;-89
2022/08/26 18:29:06;;;;;;;10.52;7.43;;;;;;;;;;10088290;29;20433;-89
2022/08/26 18:34:11;;;;;;;10.60;6.63;;;;;;;;;;10077411;29;20463;-89
2022/08/26 18:39:14;;;;;;;12.57;6.93;;;;;;;;;;10072048;29;20421;-89
2022/08/26 18:44:22;;;;;;;11.43;6.57;;;;;;;;;;10075710;29;20430;-89
2022/08/26 18:49:25;;;;;;;8.10;5.80;;;;;;;;;;10072576;29;20425;-90
2022/08/26 18:54:28;;;;;;;7.70;5.10;;;;;;;;;;10075968;29;20423;-89
2022/08/26 18:59:31;;;;;;;8.43;4.47;;;;;;;;;;10079590;29;20442;-89
2022/08/26 19:04:33;;;;;;;6.65;4.20;;;;;;;;;;10078525;29;20439;-89
2022/08/26 19:09:36;;;;;;;4.93;3.73;;;;;;;;;;10077019;29;20432;-89
2022/08/26 19:14:39;;;;;;;6.90;4.15;;;;;;;;;;10080885;29;20796;-89
2022/08/26 19:19:41;;;;;;;4.82;3.75;;;;;;;;;;10074839;29;21241;-89
2022/08/26 19:24:43;;;;;;;5.40;3.55;;;;;;;;;;10075292;29;20877;-88
2022/08/26 19:29:46;;;;;;;5.83;3.60;;;;;;;;;;10100137;29;20724;-89
2022/08/26 19:34:49;;;;;;;5.40;3.42;;;;;;;;;;10096702;29;20424;-89
2022/08/26 19:39:52;;;;;;;6.57;4.10;;;;;;;;;;10082522;29;20432;-89
2022/08/26 19:45:08;;;;;;;5.80;4.40;;;;;;;;;;10086019;29;20444;-88
2022/08/26 19:50:13;;;;;;;8.88;4.45;;;;;;;;;;10086045;29;20427;-91
2022/08/26 19:55:17;;;;;;;6.38;4.30;;;;;;;;;;10081435;29;20498;-89
2022/08/26 20:00:26;;;;;;;6.70;4.78;;;;;;;;;;10094074;29;20833;-89
2022/08/26 20:05:28;;;;;;;7.40;5.20;;;;;;;;;;10080485;29;20534;-89
2022/08/26 20:10:30;;;;;;;5.60;4.37;;;;;;;;;;10080059;29;20833;-89
2022/08/26 20:15:34;;;;;;;8.02;4.40;;;;;;;;;;10085366;29;20529;-89
2022/08/26 20:25:56;;;;;;;5.97;4.47;;;;;;;;;;10084788;29;20431;-88
2022/08/26 20:31:00;;;;;;;9.07;4.87;;;;;;;;;;10083578;29;20424;-89
2022/08/26 20:36:03;;;;;;;6.32;4.30;;;;;;;;;;10085718;29;20465;-89
2022/08/26 20:41:06;;;;;;;7.60;4.65;;;;;;;;;;10078904;29;20477;-89
2022/08/26 20:46:09;;;;;;;5.72;4.68;;;;;;;;;;10083326;29;20488;-89
2022/08/26 20:51:12;;;;;;;6.27;4.90;;;;;;;;;;10086856;29;20421;-89
2022/08/26 20:56:15;;;;;;;7.03;4.78;;;;;;;;;;10081949;29;20813;-89
2022/08/26 21:01:25;;;;;;;10.60;5.15;;;;;;;;;;10088915;29;20454;-89
2022/08/26 21:06:27;;;;;;;6.45;4.68;;;;;;;;;;10123895;29;20431;-88
2022/08/26 21:11:29;;;;;;;6.28;4.55;;;;;;;;;;10084262;29;20407;-89
2022/08/26 21:16:34;;;;;;;6.90;4.32;;;;;;;;;;10079206;29;20523;-89
2022/08/26 21:21:37;;;;;;;7.80;4.78;;;;;;;;;;10078104;29;20596;-89
2022/08/26 21:26:39;;;;;;;5.80;4.32;;;;;;;;;;10087587;29;20465;-89
2022/08/26 21:31:46;;;;;;;8.00;4.85;;;;;;;;;;10089428;29;20462;-89
2022/08/26 21:36:48;;;;;;;8.23;5.13;;;;;;;;;;10074267;29;20453;-89
2022/08/26 21:41:50;;;;;;;6.85;4.80;;;;;;;;;;10079761;29;20514;-89
2022/08/26 21:46:54;;;;;;;7.78;5.45;;;;;;;;;;10081608;29;20420;-89
2022/08/26 21:51:56;;;;;;;8.30;5.17;;;;;;;;;;10080544;29;20423;-90
2022/08/26 21:56:58;;;;;;;6.68;5.10;;;;;;;;;;10083414;29;20459;-90
2022/08/26 22:02:04;;;;;;;8.18;5.70;;;;;;;;;;10072759;29;20433;-89
2022/08/26 22:07:06;;;;;;;7.27;5.20;;;;;;;;;;10076110;29;20421;-90
2022/08/26 22:12:09;;;;;;;8.23;5.07;;;;;;;;;;10081447;29;20469;-90
2022/08/26 22:17:12;;;;;;;15.70;11.52;;;;;;;;;;10074392;29;20460;-89
2022/08/26 22:22:15;;;;;;;11.20;9.37;;;;;;;;;;10076147;29;20429;-89
2022/08/26 22:27:17;;;;;;;10.88;7.30;;;;;;;;;;10078259;29;20427;-89
2022/08/26 22:32:22;;;;;;;10.60;7.28;;;;;;;;;;10075952;29;20984;-89
2022/08/26 22:37:24;;;;;;;9.43;7.00;;;;;;;;;;10077077;29;20453;-89
2022/08/26 22:42:26;;;;;;;8.55;6.45;;;;;;;;;;10082201;29;20765;-89
2022/08/26 22:47:29;;;;;;;9.30;6.60;;;;;;;;;;10093429;29;20403;-89
2022/08/26 22:52:32;;;;;;;7.57;5.30;;;;;;;;;;10108305;29;20407;-89
2022/08/26 22:57:34;;;;;;;8.05;4.80;;;;;;;;;;10084297;29;20426;-89
2022/08/26 23:02:37;;;;;;;7.78;5.50;;;;;;;;;;10070095;29;20544;-89
2022/08/26 23:07:39;;;;;;;7.67;5.47;;;;;;;;;;10073420;29;20503;-90
2022/08/26 23:12:41;;;;;;;6.75;5.13;;;;;;;;;;10075981;29;20479;-89
2022/08/26 23:17:44;;;;;;;6.82;5.32;;;;;;;;;;10074995;29;20427;-89
2022/08/26 23:22:46;;;;;;;7.03;5.37;;;;;;;;;;10074468;29;20869;-90
2022/08/26 23:27:51;;;;;;;8.85;5.43;;;;;;;;;;10082852;29;20511;-90
2022/08/26 23:32:55;;;;;;;7.95;5.32;;;;;;;;;;10075101;29;20423;-89
2022/08/26 23:37:57;;;;;;;8.32;6.00;;;;;;;;;;10071118;29;20451;-89
2022/08/26 23:43:02;;;;;;;8.40;6.07;;;;;;;;;;10074773;29;20502;-89
2022/08/26 23:48:08;;;;;;;10.10;6.50;;;;;;;;;;10073988;29;20420;-89
2022/08/26 23:53:10;;;;;;;8.88;6.13;;;;;;;;;;10070512;29;20456;-90
2022/08/26 23:58:12;;;;;;;8.52;5.82;;;;;;;;;;10080433;29;20411;-90
